Time;durP1;ratioP1;P1;durP2;ratioP2;P2;SDS_P1;SDS_P2;PMS_P1;PMS_P2;Temp;Humidity;BMP_temperature;BMP_pressure;BME280_temperature;BME280_humidity;BME280_pressure;Samples;Min_cycle;Max_cycle;Signal;HPM_P1;HPM_P2
2023/05/15 00:02:21;;;;;;;7.35;5.40;;;;;;;11.15;66.04;150095.22;5043357;28;20209;-66
2023/05/15 00:04:47;;;;;;;6.97;5.82;;;;;;;11.06;66.63;150072.13;5039991;28;20091;-65
2023/05/15 00:07:12;;;;;;;10.32;5.88;;;;;;;11.00;67.25;150056.72;5056839;28;20025;-66
2023/05/15 00:09:38;;;;;;;6.72;5.40;;;;;;;11.00;66.48;150056.72;5052111;28;20302;-66
2023/05/15 00:12:04;;;;;;;6.88;5.93;;;;;;;10.96;66.56;150046.44;5046955;28;20040;-66
2023/05/15 00:14:30;;;;;;;7.00;5.80;;;;;;;10.89;67.06;150029.81;5063412;28;20048;-66
2023/05/15 00:16:55;;;;;;;8.32;5.93;;;;;;;10.91;66.93;150033.66;5056192;28;20029;-66
2023/05/15 00:19:21;;;;;;;8.05;5.68;;;;;;;10.88;67.27;150028.50;5064877;28;20028;-65
2023/05/15 00:21:46;;;;;;;8.27;5.53;;;;;;;10.88;67.01;150028.50;5064508;28;20198;-65
2023/05/15 00:24:12;;;;;;;8.18;5.80;;;;;;;10.86;67.22;150023.38;5057483;28;20037;-65
2023/05/15 00:26:38;;;;;;;8.15;6.22;;;;;;;10.80;67.63;150008.00;5054555;28;20028;-65
2023/05/15 00:29:03;;;;;;;8.02;5.65;;;;;;;10.69;68.21;149979.78;5064507;28;20266;-64
2023/05/15 00:31:29;;;;;;;9.90;6.13;;;;;;;10.67;68.07;149974.63;5064206;28;20025;-64
2023/05/15 00:33:54;;;;;;;6.32;5.72;;;;;;;10.58;68.74;149951.56;5051487;28;20052;-62
2023/05/15 00:36:20;;;;;;;8.45;6.07;;;;;;;10.58;69.40;149952.84;5052448;28;20131;-65
2023/05/15 00:38:46;;;;;;;7.60;6.07;;;;;;;10.59;69.37;149954.09;5060898;28;20076;-64
2023/05/15 00:41:14;;;;;;;8.75;5.68;;;;;;;10.48;69.36;149928.47;5073125;28;20029;-64
2023/05/15 00:43:41;;;;;;;7.15;5.80;;;;;;;10.55;68.95;149945.16;5064315;28;20094;-64
2023/05/15 00:46:07;;;;;;;8.55;5.53;;;;;;;10.52;68.96;149938.72;5072888;28;20021;-65
2023/05/15 00:48:33;;;;;;;7.75;5.93;;;;;;;10.58;69.30;149952.84;5064218;28;20029;-64
2023/05/15 00:50:59;;;;;;;8.55;5.90;;;;;;;10.61;68.35;149959.25;5063626;28;20101;-64
2023/05/15 00:53:27;;;;;;;13.77;6.20;;;;;;;10.43;68.57;149915.66;5063769;28;20040;-64
2023/05/15 00:55:56;;;;;;;6.22;5.65;;;;;;;10.46;69.32;149923.34;5048130;28;20092;-64
2023/05/15 00:58:22;;;;;;;9.45;5.70;;;;;;;10.38;69.63;149902.81;5064091;28;20056;-64
2023/05/15 01:00:49;;;;;;;8.73;6.07;;;;;;;10.46;69.13;149923.34;5063214;28;20048;-64
2023/05/15 01:03:16;;;;;;;9.55;6.20;;;;;;;10.43;68.55;149915.66;5056680;28;20025;-64
2023/05/15 01:05:42;;;;;;;6.65;5.65;;;;;;;10.41;69.20;149910.50;5058157;28;20044;-62
2023/05/15 01:08:26;;;;;;;7.43;5.47;;;;;;;10.33;69.45;149889.94;5063713;28;20025;-64
2023/05/15 01:10:54;;;;;;;7.63;5.70;;;;;;;10.41;69.45;149909.25;5053627;28;20044;-63
2023/05/15 01:13:23;;;;;;;6.55;5.47;;;;;;;10.32;69.40;149887.41;5046078;28;20033;-64
2023/05/15 01:15:49;;;;;;;9.40;5.85;;;;;;;10.38;69.51;149902.81;5055211;28;20029;-66
2023/05/15 01:18:15;;;;;;;8.52;6.07;;;;;;;10.26;69.74;149873.31;5063536;28;20320;-66
2023/05/15 01:21:02;;;;;;;11.90;6.43;;;;;;;10.25;70.37;149870.72;5061874;28;20027;-66
2023/05/15 01:23:59;;;;;;;8.40;6.47;;;;;;;10.25;70.79;149869.47;5045207;28;20451;-66
2023/05/15 01:27:01;;;;;;;9.50;5.80;;;;;;;10.26;70.25;149872.00;5051478;28;20033;-66
2023/05/15 01:29:34;;;;;;;8.35;6.38;;;;;;;10.12;70.30;149838.69;5063419;28;20336;-65
2023/05/15 01:32:05;;;;;;;9.50;6.60;;;;;;;10.14;69.80;149843.78;5063306;28;20025;-66
2023/05/15 01:34:56;;;;;;;8.13;5.80;;;;;;;10.05;70.52;149819.41;5045956;28;20025;-65
2023/05/15 01:37:26;;;;;;;8.25;6.20;;;;;;;10.08;70.54;149828.41;5059531;28;20124;-66
2023/05/15 01:39:56;;;;;;;6.90;5.97;;;;;;;10.03;71.07;149815.56;5064802;28;20032;-64
2023/05/15 01:42:29;;;;;;;8.55;5.80;;;;;;;10.10;70.46;149832.25;5066632;28;20031;-64
2023/05/15 01:44:56;;;;;;;7.72;5.68;;;;;;;10.11;70.18;149834.84;5063007;28;20081;-64
2023/05/15 01:47:46;;;;;;;9.27;6.80;;;;;;;10.01;71.20;149810.47;5061649;28;20036;-64
2023/05/15 01:50:16;;;;;;;9.23;6.07;;;;;;;10.05;71.69;149819.41;5042564;28;20069;-64
2023/05/15 01:52:49;;;;;;;7.30;5.50;;;;;;;9.92;71.01;149787.38;5060814;28;20035;-63
2023/05/15 01:55:16;;;;;;;8.20;5.93;;;;;;;10.04;71.24;149816.88;5062213;28;20036;-64
2023/05/15 01:57:42;;;;;;;7.97;6.47;;;;;;;10.02;70.93;149814.31;5062073;28;20032;-65
2023/05/15 02:00:10;;;;;;;8.88;5.97;;;;;;;9.91;72.13;149786.09;5062744;28;20028;-64
2023/05/15 02:02:36;;;;;;;8.00;5.88;;;;;;;9.84;72.80;149768.16;5061153;28;20029;-64
2023/05/15 02:05:04;;;;;;;7.63;5.55;;;;;;;9.91;71.92;149784.84;5042520;28;20106;-65
2023/05/15 02:07:30;;;;;;;9.63;5.68;;;;;;;9.91;72.87;149786.09;5060173;28;20036;-64
2023/05/15 02:09:58;;;;;;;8.85;5.93;;;;;;;9.96;72.26;149797.63;5062507;28;20060;-64
2023/05/15 02:12:25;;;;;;;7.45;6.05;;;;;;;9.93;72.36;149789.94;5062394;28;20052;-64
2023/05/15 02:14:51;;;;;;;7.70;5.85;;;;;;;10.08;71.94;149827.16;5061208;28;20119;-65
2023/05/15 02:17:17;;;;;;;9.00;6.05;;;;;;;10.12;72.42;149837.41;5062315;28;20056;-65
2023/05/15 02:19:43;;;;;;;9.07;6.63;;;;;;;10.18;72.25;149852.78;5025908;28;20154;-65
2023/05/15 02:22:09;;;;;;;9.35;6.13;;;;;;;10.15;72.07;149845.09;5055513;28;20044;-63
2023/05/15 02:24:35;;;;;;;8.35;5.97;;;;;;;10.17;71.88;149850.19;5062126;28;20040;-64
2023/05/15 02:27:23;;;;;;;7.22;5.85;;;;;;;10.17;71.97;149850.19;5057672;28;20083;-64
2023/05/15 02:30:05;;;;;;;10.90;6.07;;;;;;;10.17;73.41;149850.19;5057048;28;20045;-65
2023/05/15 02:32:39;;;;;;;;;;;;;;;10.33;72.68;149889.94;5061995;28;20083;-65
2023/05/15 02:35:29;;;;;;;9.43;6.00;;;;;;;10.51;71.58;149936.16;5042273;28;20102;-65
2023/05/15 02:37:59;;;;;;;7.82;5.65;;;;;;;10.52;71.03;149938.72;5062204;28;20096;-65
2023/05/15 02:40:27;;;;;;;8.10;5.95;;;;;;;10.70;70.69;149983.63;5073116;28;20028;-64
2023/05/15 02:42:53;;;;;;;10.65;6.57;;;;;;;10.80;70.05;150006.69;5061802;28;20104;-65
2023/05/15 02:45:21;;;;;;;9.88;5.80;;;;;;;10.85;69.76;150020.81;5062188;28;20074;-64
2023/05/15 02:47:49;;;;;;;13.63;6.22;;;;;;;10.94;69.04;150042.59;5059418;28;20032;-63
2023/05/15 02:50:15;;;;;;;11.38;7.38;;;;;;;10.99;69.13;150055.44;5057656;28;20070;-64
2023/05/15 02:52:40;;;;;;;8.02;6.78;;;;;;;11.07;68.69;150074.66;5061909;28;20382;-65
2023/05/15 02:55:07;;;;;;;8.80;6.00;;;;;;;11.12;69.00;150087.53;5061814;28;20036;-65
2023/05/15 02:57:32;;;;;;;10.55;5.45;;;;;;;11.18;67.49;150101.63;5053162;28;20033;-65
2023/05/15 02:59:58;;;;;;;9.55;5.03;;;;;;;11.22;67.19;150111.91;5045529;28;20272;-64
2023/05/15 03:02:24;;;;;;;10.32;5.65;;;;;;;11.34;66.82;150141.41;5058585;28;20067;-66
2023/05/15 03:04:50;;;;;;;8.43;5.07;;;;;;;11.36;66.53;150147.81;5024835;28;20025;-65
2023/05/15 03:07:15;;;;;;;10.00;5.53;;;;;;;11.48;66.08;150176.06;5057204;28;20040;-65
2023/05/15 03:09:41;;;;;;;6.85;5.07;;;;;;;11.53;66.40;150190.19;5041233;28;20033;-65
2023/05/15 03:12:09;;;;;;;9.40;4.63;;;;;;;11.52;65.81;150187.59;5061743;28;20136;-65
2023/05/15 03:14:35;;;;;;;7.10;4.20;;;;;;;11.50;66.71;150181.16;5061175;28;20072;-64
2023/05/15 03:17:00;;;;;;;10.10;4.70;;;;;;;11.50;65.57;150181.16;5054821;28;20192;-64
2023/05/15 03:19:26;;;;;;;6.25;5.03;;;;;;;11.66;66.43;150222.25;5061475;28;20029;-65
2023/05/15 03:21:52;;;;;;;6.82;4.18;;;;;;;11.61;64.86;150209.41;5050577;28;20029;-67
2023/05/15 03:24:17;;;;;;;7.28;4.43;;;;;;;11.77;65.12;150249.19;5047809;28;20037;-66
2023/05/15 03:26:43;;;;;;;5.72;4.53;;;;;;;11.90;65.36;150281.34;5060007;28;20025;-65
2023/05/15 03:29:10;;;;;;;7.53;4.75;;;;;;;11.83;64.39;150263.31;5045125;28;20032;-64
2023/05/15 03:31:35;;;;;;;6.47;4.32;;;;;;;12.07;63.82;150325.00;5061175;28;20033;-64
2023/05/15 03:34:01;;;;;;;5.00;4.30;;;;;;;12.12;63.73;150336.56;5049370;28;20079;-64
2023/05/15 03:36:26;;;;;;;6.32;4.38;;;;;;;12.21;63.98;150359.69;5049899;28;20021;-65
2023/05/15 03:38:52;;;;;;;5.45;3.67;;;;;;;12.36;63.85;150395.66;5061352;28;20037;-67
2023/05/15 03:41:17;;;;;;;7.72;3.67;;;;;;;12.48;62.09;150426.44;5072734;28;20025;-65
2023/05/15 03:43:43;;;;;;;5.60;3.92;;;;;;;12.53;62.58;150438.03;5061940;28;20037;-66
2023/05/15 03:46:09;;;;;;;6.00;4.25;;;;;;;12.56;63.32;150445.72;5064854;28;20305;-65
2023/05/15 03:48:34;;;;;;;6.05;4.07;;;;;;;12.65;63.04;150467.56;5056659;28;20041;-65
2023/05/15 03:51:00;;;;;;;6.95;4.45;;;;;;;12.64;62.05;150466.28;5048862;28;20048;-65
2023/05/15 03:53:25;;;;;;;5.13;3.90;;;;;;;12.79;61.82;150503.50;5064099;28;20092;-65
2023/05/15 03:55:51;;;;;;;5.78;3.85;;;;;;;12.87;62.96;150524.06;5064793;28;20024;-65
2023/05/15 03:58:16;;;;;;;6.90;4.13;;;;;;;12.80;60.76;150506.09;5064723;28;20095;-65
2023/05/15 04:00:42;;;;;;;6.70;3.42;;;;;;;13.00;59.65;150556.19;5064820;28;20028;-63
2023/05/15 04:03:08;;;;;;;6.00;3.55;;;;;;;13.19;60.80;150603.72;5060371;28;20044;-63
2023/05/15 04:05:34;;;;;;;6.07;3.83;;;;;;;13.31;60.90;150633.31;5046184;28;20045;-63
2023/05/15 04:07:59;;;;;;;6.38;4.35;;;;;;;13.36;61.01;150644.91;5045019;28;20029;-63
2023/05/15 04:10:25;;;;;;;6.25;4.13;;;;;;;13.38;60.03;150650.03;5060053;28;20029;-63
2023/05/15 04:12:52;;;;;;;6.82;4.32;;;;;;;13.42;59.53;150660.31;5064388;28;20250;-62
2023/05/15 04:15:20;;;;;;;10.85;5.68;;;;;;;13.49;59.52;150677.03;5053618;28;20316;-62
2023/05/15 04:17:47;;;;;;;6.13;3.17;;;;;;;13.33;58.00;150638.44;5064392;28;20093;-62
2023/05/15 04:20:14;;;;;;;8.25;3.65;;;;;;;13.57;59.57;150698.88;5064604;28;20025;-63
2023/05/15 04:22:41;;;;;;;6.00;3.90;;;;;;;13.59;59.10;150702.72;5063844;28;20318;-63
2023/05/15 04:25:08;;;;;;;7.07;4.03;;;;;;;13.46;59.19;150671.88;5063888;28;20043;-62
2023/05/15 04:27:35;;;;;;;4.15;2.67;;;;;;;13.59;57.60;150704.00;5064349;28;20072;-62
2023/05/15 04:30:01;;;;;;;5.85;3.17;;;;;;;13.64;58.19;150716.88;5064172;28;20029;-62
2023/05/15 04:32:27;;;;;;;6.35;3.17;;;;;;;13.60;57.07;150706.59;5064034;28;20029;-63
2023/05/15 04:34:52;;;;;;;4.78;3.33;;;;;;;13.74;56.58;150740.03;5045408;28;20101;-62
2023/05/15 04:37:18;;;;;;;5.22;3.08;;;;;;;13.89;55.98;150778.56;5059925;28;20084;-63
2023/05/15 04:39:44;;;;;;;4.22;2.63;;;;;;;14.09;55.90;150827.44;5069972;28;20154;-64
2023/05/15 04:42:09;;;;;;;7.18;3.30;;;;;;;14.16;55.62;150845.44;5069150;28;20033;-63
2023/05/15 04:44:35;;;;;;;4.05;2.85;;;;;;;14.34;56.44;150890.47;5064072;28;20048;-63
2023/05/15 04:47:01;;;;;;;4.35;2.80;;;;;;;14.22;53.64;150860.84;5056356;28;20048;-63
2023/05/15 04:49:26;;;;;;;7.57;2.97;;;;;;;14.35;54.11;150893.06;5063885;28;20029;-63
2023/05/15 04:51:52;;;;;;;3.58;2.30;;;;;;;14.49;53.32;150927.75;5062483;28;20054;-63
2023/05/15 04:54:17;;;;;;;4.82;2.65;;;;;;;14.90;52.54;151029.44;5063064;28;20083;-63
2023/05/15 04:56:44;;;;;;;4.50;2.33;;;;;;;15.24;52.94;151115.63;5052617;28;20025;-63
2023/05/15 04:59:10;;;;;;;6.47;2.45;;;;;;;15.33;51.57;151138.84;5063876;28;20148;-65
2023/05/15 05:01:36;;;;;;;6.78;2.88;;;;;;;15.43;52.04;151161.97;5063183;28;20338;-62
2023/05/15 05:04:02;;;;;;;4.20;2.20;;;;;;;15.42;51.59;151160.69;5062961;28;20049;-66
2023/05/15 05:06:27;;;;;;;2.88;2.13;;;;;;;15.22;49.36;151109.19;5056235;28;20053;-64
2023/05/15 05:08:53;;;;;;;12.57;2.63;;;;;;;15.48;50.71;151174.88;5027657;28;20086;-64
2023/05/15 05:11:18;;;;;;;7.32;2.28;;;;;;;15.65;50.78;151217.34;5063311;28;20217;-65
2023/05/15 05:13:44;;;;;;;5.50;2.17;;;;;;;15.83;49.85;151262.41;5063658;28;20024;-65
2023/05/15 05:16:09;;;;;;;2.97;1.80;;;;;;;16.15;48.00;151342.28;5063134;28;20325;-65
2023/05/15 05:18:36;;;;;;;3.05;1.85;;;;;;;16.41;46.80;151407.94;5063197;28;20100;-64
2023/05/15 05:21:02;;;;;;;3.08;2.03;;;;;;;16.69;46.75;151478.78;5059952;28;20282;-65
2023/05/15 05:23:29;;;;;;;8.77;2.22;;;;;;;16.94;47.35;151540.66;5043548;28;20250;-63
2023/05/15 05:25:55;;;;;;;2.00;1.80;;;;;;;16.30;46.27;151380.88;5061583;28;20027;-62
2023/05/15 05:28:21;;;;;;;1.50;1.40;;;;;;;15.94;46.89;151290.75;5049583;28;20026;-63
2023/05/15 05:30:47;;;;;;;2.25;1.90;;;;;;;16.10;47.29;151330.66;5052026;28;20113;-63
2023/05/15 05:33:14;;;;;;;3.40;1.58;;;;;;;16.21;46.80;151357.72;5063203;28;20394;-64
2023/05/15 05:35:40;;;;;;;3.00;1.83;;;;;;;16.15;46.96;151342.28;5062817;28;20033;-64
2023/05/15 05:38:05;;;;;;;2.58;2.10;;;;;;;16.43;47.56;151411.78;5043178;28;20397;-63
2023/05/15 05:40:31;;;;;;;2.80;1.58;;;;;;;16.54;45.38;151440.13;5069482;28;20028;-65
2023/05/15 05:43:01;;;;;;;1.50;1.40;;;;;;;16.47;44.86;151423.38;5052525;28;20067;-65
2023/05/15 05:45:27;;;;;;;3.00;1.48;;;;;;;16.43;46.80;151411.78;5045426;28;20075;-64
2023/05/15 05:47:55;;;;;;;1.40;1.30;;;;;;;16.13;44.63;151337.09;5062834;28;20039;-63
2023/05/15 05:50:20;;;;;;;4.10;1.45;;;;;;;16.36;46.83;151396.34;5062887;28;20368;-63
2023/05/15 05:52:46;;;;;;;4.13;1.48;;;;;;;16.50;46.16;151429.81;5047171;28;20021;-63
2023/05/15 05:55:12;;;;;;;1.60;1.45;;;;;;;16.63;45.52;151463.34;5062428;28;20344;-62
2023/05/15 05:57:37;;;;;;;4.45;1.50;;;;;;;16.36;45.70;151396.34;5062352;28;20059;-63
2023/05/15 06:00:07;;;;;;;1.83;1.60;;;;;;;16.46;45.74;151419.53;5062668;28;20531;-63
2023/05/15 06:02:33;;;;;;;2.15;1.38;;;;;;;16.62;45.99;151460.75;5065603;28;20035;-63
2023/05/15 06:04:58;;;;;;;2.78;1.40;;;;;;;16.91;46.71;151534.22;5081004;28;20233;-64
2023/05/15 06:07:24;;;;;;;3.22;1.70;;;;;;;16.72;45.75;151486.50;5064940;28;20024;-64
2023/05/15 06:09:50;;;;;;;4.03;1.25;;;;;;;16.78;44.99;151500.69;5062306;28;20059;-64
2023/05/15 06:12:15;;;;;;;1.88;1.35;;;;;;;16.60;45.98;151455.56;5057666;28;20036;-63
2023/05/15 06:14:41;;;;;;;3.15;1.70;;;;;;;16.94;46.91;151539.41;5042571;28;20025;-64
2023/05/15 06:17:07;;;;;;;1.38;1.27;;;;;;;16.54;45.44;151440.13;5060951;28;20333;-63
2023/05/15 06:19:32;;;;;;;2.95;1.25;;;;;;;16.89;46.37;151527.81;5044386;28;20037;-63
2023/05/15 06:21:58;;;;;;;4.10;1.30;;;;;;;16.59;44.85;151453.03;5062098;28;20032;-63
2023/05/15 06:24:23;;;;;;;3.45;1.40;;;;;;;16.63;45.61;151462.03;5062287;28;20052;-63
2023/05/15 06:26:49;;;;;;;2.58;1.40;;;;;;;16.62;45.04;151459.50;5061894;28;20086;-64
2023/05/15 06:29:15;;;;;;;1.77;1.20;;;;;;;16.45;44.84;151416.97;5061810;28;20044;-63
2023/05/15 06:31:40;;;;;;;5.00;1.60;;;;;;;16.53;45.10;151438.88;5064114;28;20017;-64
2023/05/15 06:34:06;;;;;;;2.67;1.20;;;;;;;16.63;44.10;151462.03;5062301;28;20017;-63
2023/05/15 06:36:31;;;;;;;1.92;1.30;;;;;;;16.94;46.04;151540.66;5062130;28;20021;-63
2023/05/15 06:38:57;;;;;;;2.65;1.23;;;;;;;16.64;44.54;151464.63;5061890;28;20100;-62
2023/05/15 06:41:22;;;;;;;4.32;1.33;;;;;;;16.76;44.17;151495.56;5074158;28;20171;-63
2023/05/15 06:43:48;;;;;;;1.88;1.25;;;;;;;17.05;44.25;151569.00;5044264;28;20028;-63
2023/05/15 06:46:15;;;;;;;3.40;1.30;;;;;;;17.18;44.80;151599.97;5061225;28;20033;-64
2023/05/15 06:48:41;;;;;;;3.30;1.33;;;;;;;17.20;44.51;151606.41;5066686;28;20020;-64
2023/05/15 06:51:07;;;;;;;3.63;1.40;;;;;;;17.04;45.43;151566.44;5071318;28;20138;-62
2023/05/15 06:53:32;;;;;;;2.22;1.20;;;;;;;16.51;43.57;151432.41;5069707;28;20079;-64
2023/05/15 06:55:58;;;;;;;3.70;1.27;;;;;;;16.48;44.01;151425.97;5047697;28;20024;-63
2023/05/15 06:58:24;;;;;;;3.47;1.20;;;;;;;16.55;43.85;151442.72;5053572;28;20021;-62
2023/05/15 07:00:50;;;;;;;4.90;1.10;;;;;;;16.56;43.57;151445.31;5063309;28;20027;-62
2023/05/15 07:03:16;;;;;;;9.57;1.40;;;;;;;16.72;44.75;151486.50;5053361;28;20028;-66
2023/05/15 07:05:42;;;;;;;1.15;1.10;;;;;;;16.46;43.75;151419.53;5068805;28;20232;-62
2023/05/15 07:08:07;;;;;;;1.33;1.10;;;;;;;16.43;43.06;151413.06;5071066;28;20052;-62
2023/05/15 07:10:33;;;;;;;2.97;1.60;;;;;;;16.49;43.97;151428.56;5069814;28;20020;-63
2023/05/15 07:12:58;;;;;;;1.88;1.48;;;;;;;16.80;43.80;151505.88;5071163;28;20009;-63
2023/05/15 07:15:24;;;;;;;2.90;1.20;;;;;;;17.08;43.88;151575.47;5071374;28;20298;-63
2023/05/15 07:17:50;;;;;;;3.60;1.33;;;;;;;17.22;43.17;151611.53;5071656;28;20021;-63
2023/05/15 07:20:16;;;;;;;2.15;1.10;;;;;;;16.78;42.37;151499.41;5073731;28;20090;-61
2023/05/15 07:22:41;;;;;;;3.17;1.40;;;;;;;16.91;42.22;151532.94;5075023;28;20025;-63
2023/05/15 07:25:07;;;;;;;2.35;1.20;;;;;;;17.17;42.54;151598.69;5075114;28;20035;-62
2023/05/15 07:27:33;;;;;;;2.05;1.20;;;;;;;17.16;43.23;151594.78;5077841;28;20568;-62
2023/05/15 07:30:00;;;;;;;2.63;1.23;;;;;;;16.97;42.27;151548.38;5076341;28;20044;-62
2023/05/15 07:32:26;;;;;;;2.78;1.33;;;;;;;17.31;42.71;151633.44;5075153;28;20032;-63
2023/05/15 07:34:52;;;;;;;3.13;1.42;;;;;;;16.99;41.78;151553.56;5072767;28;20097;-63
2023/05/15 07:37:17;;;;;;;2.88;1.50;;;;;;;17.03;41.42;151562.56;5057521;28;20092;-64
2023/05/15 07:39:43;;;;;;;2.58;1.20;;;;;;;17.00;41.24;151554.84;5065647;28;20036;-63
2023/05/15 07:42:08;;;;;;;4.43;1.38;;;;;;;17.26;42.47;151620.59;5075980;28;20045;-62
2023/05/15 07:44:34;;;;;;;2.90;1.40;;;;;;;17.60;42.57;151705.66;5046398;28;20040;-62
2023/05/15 07:47:00;;;;;;;1.67;1.38;;;;;;;17.79;43.61;151753.34;5078159;28;20020;-63
2023/05/15 07:49:26;;;;;;;4.43;1.60;;;;;;;17.91;41.80;151784.34;5053614;28;20025;-64
2023/05/15 07:51:51;;;;;;;1.95;1.55;;;;;;;18.07;41.26;151823.00;5055640;28;20041;-62
2023/05/15 07:54:17;;;;;;;4.88;1.30;;;;;;;18.13;41.48;151837.19;5048115;28;20033;-63
2023/05/15 07:56:43;;;;;;;1.40;1.23;;;;;;;18.15;40.97;151843.66;5065253;28;20032;-63
2023/05/15 07:59:08;;;;;;;6.43;1.40;;;;;;;17.72;40.23;151735.31;5065022;28;20313;-64
2023/05/15 08:01:34;;;;;;;2.33;1.35;;;;;;;17.89;41.80;151777.84;5047443;28;20035;-63
2023/05/15 08:03:59;;;;;;;2.67;1.00;;;;;;;17.89;40.94;151779.13;5064756;28;20037;-62
2023/05/15 08:06:25;;;;;;;2.45;1.13;;;;;;;18.09;40.68;151829.44;5064567;28;20075;-63
2023/05/15 08:08:51;;;;;;;5.80;1.30;;;;;;;18.10;40.23;151832.03;5063501;28;20198;-63
2023/05/15 08:11:17;;;;;;;1.30;1.13;;;;;;;17.96;40.34;151795.94;5064422;28;20329;-63
2023/05/15 08:13:43;;;;;;;2.13;1.45;;;;;;;17.81;39.92;151757.22;5064771;28;20060;-63
2023/05/15 08:16:08;;;;;;;1.35;1.20;;;;;;;17.76;40.10;151746.88;5062829;28;20029;-63
2023/05/15 08:18:34;;;;;;;2.13;1.10;;;;;;;17.90;40.11;151780.41;5063507;28;20036;-63
2023/05/15 08:21:00;;;;;;;1.23;1.13;;;;;;;18.20;40.45;151856.56;5063613;28;20059;-63
2023/05/15 08:23:25;;;;;;;7.43;1.48;;;;;;;18.39;40.77;151904.25;5043310;28;20379;-64
2023/05/15 08:25:51;;;;;;;5.57;1.60;;;;;;;18.54;40.04;151940.38;5063707;28;20029;-63
2023/05/15 08:28:16;;;;;;;1.88;1.38;;;;;;;18.44;39.29;151917.16;5066926;28;20020;-64
2023/05/15 08:30:42;;;;;;;2.00;1.10;;;;;;;18.11;39.46;151833.31;5056026;28;20032;-63
2023/05/15 08:33:08;;;;;;;1.33;1.20;;;;;;;18.54;39.80;151941.69;5082247;28;20386;-64
2023/05/15 08:35:33;;;;;;;2.13;1.33;;;;;;;18.67;39.32;151973.94;5064257;28;20104;-64
2023/05/15 08:37:59;;;;;;;2.33;1.00;;;;;;;18.18;37.93;151850.09;5067131;28;20301;-63
2023/05/15 08:40:25;;;;;;;1.90;1.50;;;;;;;18.54;39.96;151941.69;5076140;28;20024;-64
2023/05/15 08:42:57;;;;;;;1.40;1.30;;;;;;;18.62;38.97;151961.03;5075763;28;20039;-65
2023/05/15 08:45:23;;;;;;;3.53;1.65;;;;;;;18.81;39.26;152008.72;5064156;28;20036;-65
2023/05/15 08:47:48;;;;;;;2.10;1.33;;;;;;;18.77;38.13;151999.72;5056669;28;20016;-65
2023/05/15 08:50:16;;;;;;;1.45;1.15;;;;;;;18.72;37.93;151986.81;5069920;28;20316;-64
2023/05/15 08:52:44;;;;;;;1.67;1.02;;;;;;;18.41;37.10;151908.13;5071550;28;20016;-64
2023/05/15 08:55:10;;;;;;;1.17;1.08;;;;;;;18.44;37.54;151917.16;5074216;28;20194;-65
2023/05/15 08:57:37;;;;;;;2.92;1.23;;;;;;;18.76;37.15;151995.84;5071175;28;20025;-64
2023/05/15 09:00:13;;;;;;;1.30;1.20;;;;;;;19.12;38.53;152087.47;5079729;28;20035;-63
2023/05/15 09:02:39;;;;;;;2.05;1.08;;;;;;;19.24;37.17;152115.88;5068853;28;20028;-65
2023/05/15 09:05:06;;;;;;;5.85;1.20;;;;;;;19.22;37.18;152110.75;5067364;28;20041;-64
2023/05/15 09:07:32;;;;;;;3.72;1.13;;;;;;;19.32;36.85;152136.53;5071650;28;20066;-65
2023/05/15 09:09:59;;;;;;;1.38;1.00;;;;;;;19.05;35.78;152068.16;5076101;28;20032;-64
2023/05/15 09:12:25;;;;;;;1.00;0.98;;;;;;;19.05;37.07;152069.41;5075356;28;20020;-65
2023/05/15 09:15:06;;;;;;;2.65;1.20;;;;;;;19.37;37.09;152149.47;5076052;28;20024;-65
2023/05/15 09:17:32;;;;;;;2.90;1.20;;;;;;;19.43;36.85;152163.66;5073019;28;20039;-64
2023/05/15 09:19:58;;;;;;;1.95;1.17;;;;;;;19.41;35.75;152159.78;5071335;28;20025;-64
2023/05/15 09:22:24;;;;;;;2.72;1.20;;;;;;;19.53;35.38;152189.47;5070955;28;20293;-65
2023/05/15 09:24:51;;;;;;;1.42;0.98;;;;;;;19.36;34.75;152146.88;5070395;28;20025;-64
2023/05/15 09:27:19;;;;;;;3.72;1.20;;;;;;;19.43;34.82;152163.66;5070619;28;20102;-64
2023/05/15 09:29:45;;;;;;;3.38;1.67;;;;;;;19.39;35.69;152154.59;5080388;28;20044;-66
2023/05/15 09:32:14;;;;;;;1.38;1.27;;;;;;;19.52;35.32;152185.59;5063480;28;20060;-65
2023/05/15 09:34:42;;;;;;;2.95;1.02;;;;;;;19.61;35.60;152208.81;5053305;28;20087;-64
2023/05/15 09:37:10;;;;;;;2.08;1.48;;;;;;;19.57;35.89;152198.53;5072248;28;20029;-64
2023/05/15 09:39:41;;;;;;;2.95;1.52;;;;;;;19.52;35.13;152185.59;5073509;28;20120;-63
2023/05/15 09:42:12;;;;;;;2.28;1.20;;;;;;;19.43;35.04;152164.94;5046164;28;20058;-63
2023/05/15 09:44:42;;;;;;;2.58;1.17;;;;;;;19.14;34.59;152091.41;5071088;28;20427;-63
2023/05/15 09:47:12;;;;;;;4.90;1.20;;;;;;;19.14;33.53;152092.69;5050126;28;20397;-64
2023/05/15 09:49:38;;;;;;;4.63;1.20;;;;;;;19.56;34.63;152195.94;5069984;28;20017;-64
2023/05/15 09:52:08;;;;;;;1.05;0.95;;;;;;;19.62;34.73;152212.72;5073716;28;20044;-64
2023/05/15 09:54:35;;;;;;;2.35;1.05;;;;;;;19.29;33.25;152128.81;5062853;28;20021;-66
2023/05/15 09:57:12;;;;;;;3.00;1.70;;;;;;;19.24;33.70;152117.19;5062680;28;20083;-65
2023/05/15 09:59:46;;;;;;;3.97;1.77;;;;;;;19.51;34.31;152183.00;5062482;28;20036;-64
2023/05/15 10:02:31;;;;;;;2.65;1.48;;;;;;;19.46;33.58;152172.69;5062604;28;20028;-65
2023/05/15 10:04:57;;;;;;;2.78;1.55;;;;;;;19.39;33.05;152154.59;5062462;28;20060;-65
2023/05/15 10:07:35;;;;;;;2.72;1.00;;;;;;;18.97;33.43;152050.09;5062759;28;20037;-64
2023/05/15 10:10:03;;;;;;;1.20;1.10;;;;;;;19.20;34.04;152105.59;5057150;28;20025;-65
2023/05/15 10:12:31;;;;;;;3.20;1.30;;;;;;;19.31;33.72;152135.28;5062677;28;20032;-64
2023/05/15 10:14:58;;;;;;;4.75;3.80;;;;;;;19.26;34.04;152121.06;5062558;28;20099;-64
2023/05/15 10:17:25;;;;;;;19.40;2.28;;;;;;;19.43;34.55;152163.66;5062403;28;20025;-64
2023/05/15 10:19:50;;;;;;;2.63;1.20;;;;;;;19.45;35.41;152170.13;5061687;28;20028;-64
2023/05/15 10:22:25;;;;;;;6.50;1.50;;;;;;;19.42;33.43;152162.34;5062540;28;20033;-64
2023/05/15 10:24:55;;;;;;;1.60;1.33;;;;;;;18.88;33.12;152025.56;5061798;28;20032;-65
2023/05/15 10:27:21;;;;;;;1.20;1.10;;;;;;;18.89;33.91;152028.16;5059250;28;20301;-65
2023/05/15 10:29:48;;;;;;;2.72;1.38;;;;;;;18.83;33.97;152012.66;5061957;28;20033;-64
2023/05/15 10:32:15;;;;;;;2.13;1.10;;;;;;;18.90;32.52;152032.03;5062251;28;20052;-65
2023/05/15 10:34:42;;;;;;;1.80;1.05;;;;;;;18.85;32.37;152017.78;5061387;28;20024;-65
2023/05/15 10:37:09;;;;;;;2.42;1.20;;;;;;;18.93;32.82;152039.75;5062027;28;20035;-64
2023/05/15 10:39:37;;;;;;;2.55;1.40;;;;;;;19.14;33.40;152092.69;5061954;28;20028;-64
2023/05/15 10:42:04;;;;;;;3.38;1.23;;;;;;;19.35;33.22;152143.00;5061592;28;20095;-64
2023/05/15 10:44:29;;;;;;;3.72;1.30;;;;;;;19.54;33.34;152190.75;5061817;28;20087;-64
2023/05/15 10:46:55;;;;;;;2.70;1.00;;;;;;;19.32;32.42;152136.53;5061316;28;20033;-64
2023/05/15 10:49:20;;;;;;;6.07;1.55;;;;;;;19.59;33.20;152204.94;5061205;28;20051;-64
2023/05/15 10:51:46;;;;;;;1.95;1.23;;;;;;;19.62;33.02;152212.72;5061030;28;20025;-65
2023/05/15 10:54:13;;;;;;;3.58;1.50;;;;;;;19.78;33.89;152252.75;5061103;28;20025;-65
2023/05/15 10:56:38;;;;;;;1.50;1.40;;;;;;;19.57;32.83;152198.53;5061864;28;20035;-64
2023/05/15 10:59:09;;;;;;;2.70;1.30;;;;;;;19.52;32.39;152186.88;5061829;28;20278;-64
2023/05/15 11:01:39;;;;;;;4.65;1.20;;;;;;;19.79;33.52;152254.06;5061810;28;20048;-64
2023/05/15 11:04:05;;;;;;;1.60;1.20;;;;;;;19.53;33.21;152188.19;5061669;28;20025;-64
2023/05/15 11:06:31;;;;;;;2.10;1.30;;;;;;;19.40;32.86;152155.94;5062181;28;20052;-64
2023/05/15 11:09:24;;;;;;;2.08;1.45;;;;;;;19.27;32.72;152124.94;5061883;28;20025;-64
2023/05/15 11:11:56;;;;;;;2.40;1.55;;;;;;;19.43;33.37;152164.94;5060030;28;20079;-65
2023/05/15 11:14:24;;;;;;;2.05;1.33;;;;;;;18.98;32.80;152051.38;5061688;28;20051;-65
2023/05/15 11:16:53;;;;;;;1.90;1.20;;;;;;;18.97;31.87;152048.81;5043731;28;20088;-64
2023/05/15 11:19:22;;;;;;;2.55;1.23;;;;;;;19.19;31.79;152103.00;5060746;28;20106;-65
2023/05/15 11:21:58;;;;;;;1.20;1.10;;;;;;;19.41;32.84;152159.78;5061335;28;20419;-64
2023/05/15 11:24:27;;;;;;;1.83;1.17;;;;;;;19.55;32.36;152193.34;5061506;28;20049;-65
2023/05/15 11:27:03;;;;;;;3.00;1.20;;;;;;;19.49;32.32;152180.41;5061222;28;20306;-65